createdAt,value
2022-12-24T00:00:14.276Z,92.57
2022-12-24T00:01:36.256Z,92.51
2022-12-24T00:02:38.577Z,92.31
2022-12-24T00:03:40.482Z,92.51
2022-12-24T00:04:42.128Z,92.26
2022-12-24T00:05:44.188Z,92.30
2022-12-24T00:06:46.866Z,92.44
2022-12-24T00:07:48.575Z,92.37
2022-12-24T00:08:50.812Z,92.51
2022-12-24T00:09:52.423Z,92.36
2022-12-24T00:10:54.208Z,92.25
2022-12-24T00:11:55.965Z,92.67
2022-12-24T00:12:57.624Z,92.69
2022-12-24T00:13:59.325Z,92.65
2022-12-24T00:15:01.696Z,92.57
2022-12-24T00:16:03.972Z,92.81
2022-12-24T00:17:05.722Z,92.92
2022-12-24T00:18:07.581Z,93.01
2022-12-24T00:19:09.279Z,92.85
2022-12-24T00:20:11.119Z,92.99
2022-12-24T00:21:14.260Z,93.14
2022-12-24T00:22:16.081Z,93.32
2022-12-24T00:23:18.873Z,93.27
2022-12-24T00:24:20.492Z,93.07
2022-12-24T00:25:22.145Z,93.05
2022-12-24T00:26:23.843Z,93.08
2022-12-24T00:27:25.467Z,92.96
2022-12-24T00:28:27.290Z,92.98
2022-12-24T00:29:28.934Z,93.01
2022-12-24T00:30:30.615Z,93.06
2022-12-24T00:31:32.421Z,93.13
2022-12-24T00:32:34.200Z,93.10
2022-12-24T00:33:36.220Z,93.29
2022-12-24T00:34:38.721Z,93.30
2022-12-24T00:35:40.572Z,93.15
2022-12-24T00:36:42.159Z,92.90
2022-12-24T00:37:47.035Z,92.82
2022-12-24T00:38:48.962Z,92.66
2022-12-24T00:39:50.573Z,92.91
2022-12-24T00:40:58.275Z,92.87
2022-12-24T00:41:59.930Z,93.09
2022-12-24T00:43:01.505Z,93.24
2022-12-24T00:44:06.495Z,93.07
2022-12-24T00:45:09.442Z,93.15
2022-12-24T00:46:11.163Z,93.12
2022-12-24T00:47:13.355Z,93.19
2022-12-24T00:48:15.008Z,93.34
2022-12-24T00:49:17.193Z,93.28
2022-12-24T00:50:18.977Z,92.97
2022-12-24T00:51:22.266Z,92.91
2022-12-24T00:52:23.964Z,93.15
2022-12-24T00:53:25.841Z,92.99
2022-12-24T00:54:28.157Z,92.98
2022-12-24T00:55:29.872Z,92.83
2022-12-24T00:56:32.153Z,93.16
2022-12-24T00:57:33.888Z,93.12
2022-12-24T00:58:35.577Z,93.07
2022-12-24T00:59:37.201Z,93.11
2022-12-24T01:00:39.108Z,93.32
2022-12-24T01:01:40.804Z,93.30
2022-12-24T01:02:43.162Z,93.52
2022-12-24T01:03:45.652Z,93.54
2022-12-24T01:05:06.679Z,93.40
2022-12-24T01:06:11.066Z,93.22
2022-12-24T01:07:12.811Z,93.20
2022-12-24T01:08:14.489Z,93.18
2022-12-24T01:09:16.487Z,93.39
2022-12-24T01:10:19.297Z,93.57
2022-12-24T01:11:21.085Z,93.52
2022-12-24T01:12:22.955Z,93.43
2022-12-24T01:13:25.091Z,93.31
2022-12-24T01:14:27.011Z,93.45
2022-12-24T01:15:29.635Z,93.44
2022-12-24T01:16:31.490Z,93.59
2022-12-24T01:17:34.235Z,93.88
2022-12-24T01:18:35.829Z,93.85
2022-12-24T01:19:37.739Z,93.77
2022-12-24T01:20:39.678Z,93.77
2022-12-24T01:21:41.651Z,93.86
2022-12-24T01:22:43.648Z,94.10
2022-12-24T01:23:45.450Z,93.91
2022-12-24T01:24:47.626Z,94.09
2022-12-24T01:25:49.327Z,94.17
2022-12-24T01:26:51.043Z,94.08
2022-12-24T01:27:52.764Z,94.04
2022-12-24T01:28:54.459Z,94.11
2022-12-24T01:29:56.533Z,94.06
2022-12-24T01:30:58.545Z,94.24
2022-12-24T01:32:00.231Z,94.10
2022-12-24T01:33:01.809Z,94.08
2022-12-24T01:34:03.704Z,94.10
2022-12-24T01:35:06.032Z,93.98
2022-12-24T01:36:08.334Z,93.87
2022-12-24T01:37:09.995Z,93.91
2022-12-24T01:38:12.322Z,93.90
2022-12-24T01:39:14.035Z,94.01
2022-12-24T01:40:36.585Z,93.78
2022-12-24T01:41:57.103Z,93.74
2022-12-24T01:43:17.412Z,93.65
2022-12-24T01:44:21.901Z,93.74
2022-12-24T01:45:45.203Z,93.62
2022-12-24T01:46:49.162Z,93.48
2022-12-24T01:47:51.011Z,93.34
2022-12-24T01:48:55.784Z,93.28
2022-12-24T01:50:01.378Z,93.13
2022-12-24T01:51:07.686Z,93.22
2022-12-24T01:52:35.313Z,92.98
2022-12-24T01:53:38.792Z,93.16
2022-12-24T01:54:53.960Z,93.32
2022-12-24T01:55:56.123Z,93.17
2022-12-24T01:57:12.832Z,93.53
2022-12-24T01:58:17.152Z,93.49
2022-12-24T01:59:20.557Z,93.64
2022-12-24T02:00:22.153Z,93.78
2022-12-24T02:01:24.288Z,93.80
2022-12-24T02:02:28.081Z,93.70
2022-12-24T02:03:30.300Z,93.86
2022-12-24T02:04:38.591Z,93.76
2022-12-24T02:05:47.938Z,93.88
2022-12-24T02:06:49.597Z,93.77
2022-12-24T02:07:51.691Z,93.91
2022-12-24T02:08:54.625Z,93.78
2022-12-24T02:09:58.334Z,93.76
2022-12-24T02:10:59.936Z,93.80
2022-12-24T02:12:02.269Z,94.10
2022-12-24T02:13:04.971Z,94.03
2022-12-24T02:14:07.190Z,94.38
2022-12-24T02:15:12.546Z,94.24
2022-12-24T02:16:28.808Z,94.29
2022-12-24T02:18:01.349Z,94.47
2022-12-24T02:19:14.079Z,94.71
2022-12-24T02:20:42.516Z,95.07
2022-12-24T02:22:03.782Z,95.15
2022-12-24T02:23:24.207Z,95.29
2022-12-24T02:24:44.003Z,95.38
2022-12-24T02:25:55.072Z,95.29
2022-12-24T02:27:21.701Z,95.55
2022-12-24T02:28:51.461Z,95.28
2022-12-24T02:30:08.519Z,95.36
2022-12-24T02:33:04.647Z,95.31
2022-12-24T02:34:16.618Z,95.47
2022-12-24T02:35:24.373Z,95.41
2022-12-24T02:36:34.514Z,95.55
2022-12-24T02:38:00.279Z,95.48
2022-12-24T02:39:10.121Z,95.68
2022-12-24T02:40:17.516Z,95.76
2022-12-24T02:41:21.521Z,95.83
2022-12-24T02:42:26.675Z,95.80
2022-12-24T02:43:35.148Z,95.65
2022-12-24T02:44:50.339Z,95.63
2022-12-24T02:45:59.499Z,95.34
2022-12-24T02:47:04.475Z,95.45
2022-12-24T02:48:07.126Z,95.36
2022-12-24T02:49:08.946Z,95.44
2022-12-24T02:50:13.747Z,95.27
2022-12-24T02:51:16.543Z,95.14
2022-12-24T02:52:32.810Z,95.17
2022-12-24T02:53:35.850Z,95.25
2022-12-24T02:54:37.555Z,95.22
2022-12-24T02:55:57.440Z,95.45
2022-12-24T02:57:29.957Z,95.31
2022-12-24T02:59:08.974Z,95.27
2022-12-24T03:00:16.475Z,95.11
2022-12-24T03:01:36.883Z,95.00
2022-12-24T03:02:57.522Z,95.04
2022-12-24T03:04:02.405Z,94.69
2022-12-24T03:05:24.156Z,94.54
2022-12-24T03:06:57.985Z,94.91
2022-12-24T03:08:11.751Z,94.73
2022-12-24T03:09:24.752Z,94.59
2022-12-24T03:10:30.873Z,94.84
2022-12-24T03:11:35.642Z,94.63
2022-12-24T03:13:02.036Z,94.31
2022-12-24T03:14:03.799Z,94.16
2022-12-24T03:15:08.518Z,94.38
2022-12-24T03:16:15.668Z,94.65
2022-12-24T03:17:19.183Z,94.48
2022-12-24T03:18:24.429Z,94.43
2022-12-24T03:19:27.288Z,94.61
2022-12-24T03:20:36.762Z,94.67
2022-12-24T03:21:41.836Z,94.43
2022-12-24T03:22:43.784Z,94.29
2022-12-24T03:23:45.568Z,94.24
2022-12-24T03:24:47.685Z,94.08
2022-12-24T03:25:49.749Z,93.97
2022-12-24T03:26:52.281Z,94.05
2022-12-24T03:27:56.533Z,94.09
2022-12-24T03:28:58.864Z,94.26
2022-12-24T03:30:03.426Z,94.33
2022-12-24T03:31:06.527Z,94.23
2022-12-24T03:32:08.410Z,94.29
2022-12-24T03:33:11.303Z,94.12
2022-12-24T03:34:14.792Z,94.36
2022-12-24T03:35:16.712Z,94.43
2022-12-24T03:36:18.557Z,94.33
2022-12-24T03:37:20.239Z,94.69
2022-12-24T03:38:21.875Z,94.48
2022-12-24T03:39:23.680Z,94.69
2022-12-24T03:40:25.751Z,94.28
2022-12-24T03:41:27.411Z,94.16
2022-12-24T03:42:29.145Z,93.94
2022-12-24T03:43:31.137Z,93.73
2022-12-24T03:44:32.776Z,93.82
2022-12-24T03:45:35.293Z,93.95
2022-12-24T03:46:36.992Z,93.80
2022-12-24T03:47:38.897Z,94.01
2022-12-24T03:48:40.613Z,94.02
2022-12-24T03:49:42.546Z,94.04
2022-12-24T03:50:44.326Z,93.86
2022-12-24T03:51:46.114Z,93.61
2022-12-24T03:52:47.913Z,93.57
2022-12-24T03:53:52.335Z,93.61
2022-12-24T03:54:54.052Z,93.57
2022-12-24T03:55:55.774Z,93.28
2022-12-24T03:56:57.442Z,93.41
2022-12-24T03:57:59.087Z,93.25
2022-12-24T03:59:00.704Z,92.92
2022-12-24T04:00:04.954Z,93.15
2022-12-24T04:01:14.606Z,93.41
2022-12-24T04:02:16.520Z,93.50
2022-12-24T04:03:18.421Z,93.72
2022-12-24T04:04:20.065Z,93.74
2022-12-24T04:05:21.925Z,93.74
2022-12-24T04:06:23.823Z,93.85
2022-12-24T04:07:26.579Z,93.85
2022-12-24T04:08:28.309Z,93.83
2022-12-24T04:09:30.262Z,94.00
2022-12-24T04:10:31.895Z,94.00
2022-12-24T04:11:33.752Z,93.94
2022-12-24T04:12:36.050Z,93.97
2022-12-24T04:13:37.831Z,94.07
2022-12-24T04:14:39.519Z,94.14
2022-12-24T04:15:41.149Z,94.07
2022-12-24T04:16:43.092Z,94.07
2022-12-24T04:17:44.874Z,94.07
2022-12-24T04:18:46.600Z,93.83
2022-12-24T04:19:48.409Z,93.69
2022-12-24T04:20:50.097Z,93.62
2022-12-24T04:21:51.920Z,93.66
2022-12-24T04:22:53.653Z,93.89
2022-12-24T04:23:55.333Z,93.86
2022-12-24T04:24:56.964Z,94.03
2022-12-24T04:26:03.233Z,94.11
2022-12-24T04:27:04.996Z,94.10
2022-12-24T04:28:06.640Z,93.99
2022-12-24T04:29:08.291Z,94.05
2022-12-24T04:30:10.195Z,94.03
2022-12-24T04:31:16.859Z,93.96
2022-12-24T04:32:19.003Z,93.98
2022-12-24T04:33:20.679Z,93.95
2022-12-24T04:34:22.372Z,93.98
2022-12-24T04:35:23.997Z,94.03
2022-12-24T04:36:25.609Z,94.09
2022-12-24T04:37:27.795Z,93.88
2022-12-24T04:38:30.022Z,94.05
2022-12-24T04:39:31.822Z,94.00
2022-12-24T04:40:33.483Z,93.93
2022-12-24T04:41:35.816Z,94.09
2022-12-24T04:42:37.704Z,93.96
2022-12-24T04:43:39.404Z,94.06
2022-12-24T04:44:41.083Z,94.09
2022-12-24T04:45:42.756Z,93.97
2022-12-24T04:46:44.646Z,93.94
2022-12-24T04:47:46.369Z,93.89
2022-12-24T04:48:50.597Z,93.96
2022-12-24T04:49:52.642Z,93.87
2022-12-24T04:50:54.301Z,93.76
2022-12-24T04:51:55.951Z,94.02
2022-12-24T04:52:58.240Z,93.88
2022-12-24T04:54:00.283Z,94.00
2022-12-24T04:55:02.674Z,93.92
2022-12-24T04:56:09.898Z,93.86
2022-12-24T04:57:11.557Z,93.94
2022-12-24T04:58:13.706Z,94.02
2022-12-24T04:59:15.483Z,93.99
2022-12-24T05:00:17.316Z,93.94
2022-12-24T05:01:27.983Z,93.98
2022-12-24T05:02:29.831Z,93.95
2022-12-24T05:03:32.785Z,93.97
2022-12-24T05:04:34.658Z,94.13
2022-12-24T05:05:36.467Z,94.04
2022-12-24T05:06:38.140Z,93.80
2022-12-24T05:07:39.663Z,93.51
2022-12-24T05:08:42.971Z,93.49
2022-12-24T05:09:44.626Z,93.43
2022-12-24T05:10:55.333Z,93.58
2022-12-24T05:11:56.980Z,93.93
2022-12-24T05:12:58.830Z,93.79
2022-12-24T05:14:00.849Z,93.48
2022-12-24T05:15:03.605Z,93.49
2022-12-24T05:16:05.546Z,93.74
2022-12-24T05:17:07.359Z,93.83
2022-12-24T05:18:09.165Z,93.88
2022-12-24T05:19:10.985Z,93.91
2022-12-24T05:20:12.796Z,93.97
2022-12-24T05:21:17.832Z,93.81
2022-12-24T05:22:38.141Z,93.89
2022-12-24T05:23:58.393Z,94.00
2022-12-24T05:25:18.821Z,93.97
2022-12-24T05:26:31.528Z,93.68
2022-12-24T05:27:33.153Z,93.90
2022-12-24T05:28:34.722Z,93.87
2022-12-24T05:29:36.419Z,94.02
2022-12-24T05:30:38.251Z,94.04
2022-12-24T05:31:41.403Z,94.11
2022-12-24T05:32:43.195Z,94.27
2022-12-24T05:33:44.870Z,94.35
2022-12-24T05:34:46.765Z,94.27
2022-12-24T05:35:51.560Z,94.10
2022-12-24T05:36:53.239Z,94.13
2022-12-24T05:37:57.521Z,93.69
2022-12-24T05:38:59.387Z,93.77
2022-12-24T05:40:01.262Z,93.81
2022-12-24T05:41:03.319Z,93.80
2022-12-24T05:42:05.169Z,93.75
2022-12-24T05:43:06.855Z,93.87
2022-12-24T05:44:08.557Z,94.02
2022-12-24T05:45:10.411Z,93.90
2022-12-24T05:46:15.800Z,93.84
2022-12-24T05:47:17.497Z,93.83
2022-12-24T05:48:19.105Z,93.76
2022-12-24T05:49:20.885Z,93.62
2022-12-24T05:50:22.557Z,93.34
2022-12-24T05:51:39.705Z,92.99
2022-12-24T05:52:41.464Z,92.96
2022-12-24T05:53:43.136Z,92.92
2022-12-24T05:54:44.712Z,92.75
2022-12-24T05:55:46.540Z,92.48
2022-12-24T05:56:48.537Z,92.54
2022-12-24T05:57:50.215Z,92.44
2022-12-24T05:58:53.017Z,92.74
2022-12-24T05:59:55.062Z,92.87
2022-12-24T06:00:57.158Z,93.03
2022-12-24T06:01:58.976Z,93.15
2022-12-24T06:03:01.316Z,93.16
2022-12-24T06:04:03.290Z,93.22
2022-12-24T06:05:05.425Z,93.33
2022-12-24T06:06:10.716Z,93.31
2022-12-24T06:07:12.500Z,93.20
2022-12-24T06:08:14.197Z,93.30
2022-12-24T06:09:16.512Z,93.47
2022-12-24T06:10:18.924Z,93.43
2022-12-24T06:11:23.328Z,93.53
2022-12-24T06:12:25.014Z,93.47
2022-12-24T06:13:27.411Z,93.28
2022-12-24T06:14:29.186Z,93.26
2022-12-24T06:15:31.198Z,93.35
2022-12-24T06:16:33.028Z,93.30
2022-12-24T06:17:34.743Z,93.13
2022-12-24T06:18:36.918Z,93.25
2022-12-24T06:19:38.600Z,93.26
2022-12-24T06:20:40.282Z,92.94
2022-12-24T06:21:42.359Z,92.48
2022-12-24T06:22:44.029Z,92.40
2022-12-24T06:23:46.428Z,92.49
2022-12-24T06:24:48.269Z,92.24
2022-12-24T06:25:50.783Z,92.40
2022-12-24T06:26:52.595Z,92.65
2022-12-24T06:27:54.268Z,93.02
2022-12-24T06:28:55.945Z,93.01
2022-12-24T06:29:57.561Z,92.82
2022-12-24T06:31:03.921Z,93.04
2022-12-24T06:32:05.996Z,92.90
2022-12-24T06:33:07.654Z,92.84
2022-12-24T06:34:09.355Z,92.65
2022-12-24T06:35:11.629Z,92.81
2022-12-24T06:36:20.513Z,92.93
2022-12-24T06:37:22.350Z,93.08
2022-12-24T06:38:24.129Z,93.14
2022-12-24T06:39:25.882Z,93.23
2022-12-24T06:40:27.908Z,93.16
2022-12-24T06:41:29.696Z,93.41
2022-12-24T06:42:31.563Z,93.52
2022-12-24T06:43:36.171Z,93.20
2022-12-24T06:44:37.824Z,93.08
2022-12-24T06:45:39.835Z,93.44
2022-12-24T06:46:41.702Z,93.64
2022-12-24T06:47:43.503Z,93.79
2022-12-24T06:48:46.151Z,93.54
2022-12-24T06:49:48.046Z,93.31
2022-12-24T06:50:49.697Z,93.63
2022-12-24T06:51:51.404Z,93.85
2022-12-24T06:52:53.241Z,94.01
2022-12-24T06:53:54.934Z,94.02
2022-12-24T06:54:56.580Z,93.87
2022-12-24T06:56:02.512Z,93.87
2022-12-24T06:57:06.171Z,93.96
2022-12-24T06:58:08.001Z,94.04
2022-12-24T06:59:09.880Z,94.36
2022-12-24T07:00:12.578Z,94.32
2022-12-24T07:01:16.433Z,94.34
2022-12-24T07:02:18.411Z,94.24
2022-12-24T07:03:20.531Z,94.23
2022-12-24T07:04:22.421Z,94.35
2022-12-24T07:05:24.494Z,94.32
2022-12-24T07:06:28.610Z,94.41
2022-12-24T07:07:30.377Z,94.15
2022-12-24T07:08:33.538Z,94.26
2022-12-24T07:09:35.268Z,94.39
2022-12-24T07:10:37.189Z,94.29
2022-12-24T07:11:38.824Z,94.31
2022-12-24T07:12:40.853Z,94.03
2022-12-24T07:13:42.911Z,93.94
2022-12-24T07:14:44.542Z,93.84
2022-12-24T07:15:46.276Z,94.08
2022-12-24T07:16:49.578Z,93.98
2022-12-24T07:17:53.029Z,94.18
2022-12-24T07:18:54.945Z,94.19
2022-12-24T07:19:56.628Z,94.38
2022-12-24T07:20:58.618Z,94.35
2022-12-24T07:22:00.363Z,94.25
2022-12-24T07:23:02.211Z,94.22
2022-12-24T07:24:04.355Z,94.37
2022-12-24T07:25:06.518Z,94.47
2022-12-24T07:26:10.000Z,94.33
2022-12-24T07:27:12.574Z,94.30
2022-12-24T07:28:14.928Z,94.31
2022-12-24T07:29:16.937Z,94.27
2022-12-24T07:30:18.780Z,94.37
2022-12-24T07:31:20.692Z,94.16
2022-12-24T07:32:22.727Z,94.25
2022-12-24T07:33:25.464Z,94.26
2022-12-24T07:34:27.279Z,94.19
2022-12-24T07:35:29.117Z,94.20
2022-12-24T07:36:30.862Z,94.33
2022-12-24T07:37:32.528Z,94.13
2022-12-24T07:38:34.885Z,93.81
2022-12-24T07:39:41.662Z,93.88
2022-12-24T07:40:43.462Z,93.91
2022-12-24T07:41:45.223Z,93.80
2022-12-24T07:42:48.705Z,94.09
2022-12-24T07:43:50.475Z,94.06
2022-12-24T07:44:52.415Z,94.16
2022-12-24T07:45:56.200Z,94.11
2022-12-24T07:46:58.031Z,94.19
2022-12-24T07:47:59.714Z,94.21
2022-12-24T07:49:01.739Z,94.53
2022-12-24T07:50:05.373Z,94.48
2022-12-24T07:51:07.211Z,94.58
2022-12-24T07:52:08.977Z,94.55
2022-12-24T07:53:10.702Z,94.36
2022-12-24T07:54:12.468Z,94.51
2022-12-24T07:55:14.380Z,94.58
2022-12-24T07:56:16.645Z,94.65
2022-12-24T07:57:18.596Z,94.63
2022-12-24T07:58:21.266Z,94.57
2022-12-24T07:59:23.259Z,94.69
2022-12-24T08:00:25.208Z,94.61
2022-12-24T08:01:27.148Z,94.53
2022-12-24T08:02:29.098Z,94.67
2022-12-24T08:03:31.264Z,94.58
2022-12-24T08:04:35.690Z,94.53
2022-12-24T08:05:37.593Z,94.55
2022-12-24T08:06:39.458Z,94.57
2022-12-24T08:07:41.180Z,94.52
2022-12-24T08:08:43.005Z,94.58
2022-12-24T08:09:45.545Z,94.54
2022-12-24T08:10:47.693Z,94.60
2022-12-24T08:11:52.322Z,94.63
2022-12-24T08:12:54.317Z,94.23
2022-12-24T08:13:56.229Z,94.06
2022-12-24T08:14:58.065Z,94.01
2022-12-24T08:16:00.242Z,94.06
2022-12-24T08:17:01.963Z,94.31
2022-12-24T08:18:03.865Z,94.23
2022-12-24T08:19:05.593Z,94.08
2022-12-24T08:20:08.037Z,93.74
2022-12-24T08:21:09.862Z,93.74
2022-12-24T08:22:11.546Z,93.69
2022-12-24T08:23:13.729Z,93.83
2022-12-24T08:24:15.788Z,93.93
2022-12-24T08:25:17.863Z,94.17
2022-12-24T08:26:19.782Z,94.37
2022-12-24T08:27:21.931Z,94.37
2022-12-24T08:28:23.773Z,94.49
2022-12-24T08:29:25.737Z,94.34
2022-12-24T08:30:27.839Z,94.11
2022-12-24T08:31:29.994Z,93.92
2022-12-24T08:32:31.997Z,94.14
2022-12-24T08:33:33.757Z,94.45
2022-12-24T08:34:35.896Z,94.27
2022-12-24T08:35:37.770Z,94.38
2022-12-24T08:36:40.270Z,94.58
2022-12-24T08:37:42.038Z,94.64
2022-12-24T08:38:43.787Z,94.01
2022-12-24T08:39:45.568Z,94.00
2022-12-24T08:40:49.361Z,94.05
2022-12-24T08:41:51.355Z,93.96
2022-12-24T08:42:53.266Z,93.49
2022-12-24T09:35:01.379Z,94.06
2022-12-24T09:36:05.118Z,94.10
2022-12-24T09:37:07.694Z,94.01
2022-12-24T09:38:09.742Z,94.14
2022-12-24T09:39:11.574Z,93.94
2022-12-24T09:40:28.419Z,94.14
2022-12-24T09:41:42.033Z,93.85
2022-12-24T09:42:53.720Z,94.21
2022-12-24T09:44:14.127Z,94.22
2022-12-24T09:45:41.271Z,94.38
2022-12-24T09:46:47.377Z,94.58
2022-12-24T09:47:55.116Z,94.47
2022-12-24T09:49:06.403Z,94.86
2022-12-24T09:50:30.072Z,94.40
2022-12-24T09:51:41.532Z,94.64
2022-12-24T09:52:45.425Z,94.54
2022-12-24T09:53:55.654Z,94.29
2022-12-24T09:55:14.351Z,94.23
2022-12-24T09:56:23.347Z,94.08
2022-12-24T09:57:34.231Z,93.96
2022-12-24T09:58:43.210Z,93.98
2022-12-24T09:59:47.236Z,94.04
2022-12-24T10:00:50.185Z,93.73
2022-12-24T10:01:54.291Z,93.42
2022-12-24T10:02:56.864Z,93.28
2022-12-24T10:04:16.381Z,93.39
2022-12-24T10:05:49.735Z,93.43
2022-12-24T10:07:00.665Z,92.91
2022-12-24T10:08:28.691Z,92.30
2022-12-24T10:09:59.553Z,90.93
2022-12-24T10:11:16.340Z,91.12
2022-12-24T10:12:31.556Z,90.32
2022-12-24T10:13:49.205Z,90.56
2022-12-24T10:15:09.572Z,90.75
2022-12-24T10:16:49.471Z,90.53
2022-12-24T10:17:57.163Z,90.72
2022-12-24T10:19:02.056Z,90.19
2022-12-24T10:20:06.570Z,90.05
2022-12-24T10:21:16.077Z,89.15
2022-12-24T10:22:30.298Z,89.21
2022-12-24T10:24:00.282Z,89.27
2022-12-24T10:25:26.063Z,89.55
2022-12-24T10:26:57.335Z,89.68
2022-12-24T10:28:01.983Z,89.62
2022-12-24T10:29:36.676Z,89.41
2022-12-24T10:30:39.149Z,89.31
2022-12-24T10:31:52.501Z,89.63
2022-12-24T10:32:54.859Z,89.38
2022-12-24T10:34:01.430Z,88.61
2022-12-24T10:35:15.554Z,89.11
2022-12-24T10:36:23.074Z,88.99
2022-12-24T10:37:28.119Z,89.30
2022-12-24T10:38:32.430Z,88.94
2022-12-24T10:39:34.085Z,88.53
2022-12-24T10:40:43.372Z,88.78
2022-12-24T10:41:52.219Z,88.77
2022-12-24T10:42:54.195Z,89.07
2022-12-24T10:43:57.211Z,88.80
2022-12-24T10:45:03.939Z,88.42
2022-12-24T10:46:15.400Z,88.46
2022-12-24T10:47:20.408Z,88.46
2022-12-24T10:48:28.087Z,88.70
2022-12-24T10:49:36.173Z,88.44
2022-12-24T10:50:57.578Z,88.47
2022-12-24T10:52:11.973Z,88.06
2022-12-24T10:53:27.666Z,88.12
2022-12-24T10:54:38.464Z,87.81
2022-12-24T10:55:40.737Z,86.90
2022-12-24T10:56:47.296Z,87.22
2022-12-24T10:58:06.928Z,87.51
2022-12-24T10:59:24.763Z,87.50
2022-12-24T11:00:35.317Z,87.43
2022-12-24T11:01:46.507Z,87.08
2022-12-24T11:02:56.785Z,87.45
2022-12-24T11:04:01.734Z,88.02
2022-12-24T11:05:26.370Z,87.57
2022-12-24T11:06:28.142Z,86.91
2022-12-24T11:07:31.091Z,87.27
2022-12-24T11:08:34.580Z,86.99
2022-12-24T11:09:42.734Z,86.49
2022-12-24T11:10:54.887Z,86.80
2022-12-24T11:12:00.435Z,87.53
2022-12-24T11:13:36.180Z,87.16
2022-12-24T11:14:34.240Z,87.27
2022-12-24T11:15:36.120Z,87.55
2022-12-24T11:16:38.666Z,87.49
2022-12-24T11:17:41.394Z,86.71
2022-12-24T11:18:52.639Z,87.19
2022-12-24T11:19:54.545Z,87.05
2022-12-24T11:21:00.326Z,86.77
2022-12-24T11:22:18.739Z,87.14
2022-12-24T11:23:23.878Z,87.07
2022-12-24T11:24:28.462Z,86.90
2022-12-24T11:25:33.212Z,85.73
2022-12-24T11:26:35.055Z,85.83
2022-12-24T11:27:49.575Z,85.85
2022-12-24T11:29:21.535Z,85.97
2022-12-24T11:30:29.938Z,86.54
2022-12-24T11:31:35.172Z,86.61
2022-12-24T11:32:36.975Z,86.58
2022-12-24T11:33:52.106Z,86.30
2022-12-24T11:34:54.525Z,86.17
2022-12-24T11:36:03.982Z,86.18
2022-12-24T11:37:23.521Z,86.30
2022-12-24T11:38:27.230Z,86.42
2022-12-24T11:39:28.982Z,86.07
2022-12-24T11:40:35.709Z,85.24
2022-12-24T11:41:37.460Z,85.47
2022-12-24T11:42:40.231Z,85.68
2022-12-24T11:43:46.500Z,85.38
2022-12-24T11:44:49.845Z,84.86
2022-12-24T11:45:56.858Z,85.22
2022-12-24T11:46:58.765Z,84.91
2022-12-24T11:48:00.627Z,84.53
2022-12-24T11:49:29.655Z,83.87
2022-12-24T11:50:37.386Z,83.32
2022-12-24T11:51:45.320Z,83.77
2022-12-24T11:52:51.427Z,83.70
2022-12-24T11:54:37.860Z,83.85
2022-12-24T11:55:49.928Z,82.67
2022-12-24T11:56:54.637Z,83.38
2022-12-24T11:58:21.912Z,83.55
2022-12-24T11:59:32.630Z,83.64
2022-12-24T12:00:34.273Z,83.59
2022-12-24T12:01:52.057Z,82.72
2022-12-24T12:02:56.524Z,82.65
2022-12-24T12:04:06.155Z,83.31
2022-12-24T12:05:14.604Z,83.47
2022-12-24T12:06:33.428Z,83.27
2022-12-24T12:07:37.411Z,82.98
2022-12-24T12:08:41.166Z,82.97
2022-12-24T12:09:52.438Z,83.39
2022-12-24T12:10:56.256Z,83.90
2022-12-24T12:12:29.317Z,83.93
2022-12-24T12:13:36.630Z,83.64
2022-12-24T12:14:44.883Z,83.16
2022-12-24T12:16:07.836Z,83.28
2022-12-24T12:17:34.054Z,83.48
2022-12-24T12:18:39.395Z,83.29
2022-12-24T12:20:29.751Z,83.00
2022-12-24T12:21:41.882Z,82.65
2022-12-24T12:22:53.757Z,83.02
2022-12-24T12:24:04.854Z,83.07
2022-12-24T12:25:18.093Z,83.48
2022-12-24T12:26:26.324Z,83.79
2022-12-24T12:27:34.986Z,83.84
2022-12-24T12:28:48.620Z,83.74
2022-12-24T12:30:21.720Z,83.99
2022-12-24T12:31:41.372Z,84.28
2022-12-24T12:32:58.522Z,84.45
2022-12-24T12:34:20.077Z,84.49
2022-12-24T12:35:31.390Z,83.98
2022-12-24T12:36:39.803Z,83.77
2022-12-24T12:37:53.864Z,83.96
2022-12-24T12:38:55.593Z,84.09
2022-12-24T12:39:57.349Z,84.27
2022-12-24T12:41:11.357Z,84.41
2022-12-24T12:42:31.452Z,84.68
2022-12-24T12:43:57.598Z,84.86
2022-12-24T12:45:23.841Z,84.95
2022-12-24T12:47:08.453Z,84.87
2022-12-24T12:48:48.687Z,84.30
2022-12-24T12:50:18.563Z,85.25
2022-12-24T12:51:59.933Z,85.00
2022-12-24T12:53:10.390Z,85.16
2022-12-24T12:54:43.456Z,85.12
2022-12-24T12:56:28.507Z,85.32
2022-12-24T12:57:35.998Z,85.22
2022-12-24T12:58:50.543Z,84.91
2022-12-24T13:00:00.939Z,85.01
2022-12-24T13:01:18.159Z,85.03
2022-12-24T13:02:29.038Z,85.20
2022-12-24T13:03:58.903Z,85.60
2022-12-24T13:05:20.877Z,85.85
2022-12-24T13:06:38.946Z,85.97
2022-12-24T13:07:58.761Z,86.23
2022-12-24T13:09:33.943Z,86.45
2022-12-24T13:11:03.576Z,86.70
2022-12-24T13:12:12.666Z,87.19
2022-12-24T13:13:48.172Z,87.19
2022-12-24T13:15:26.105Z,87.55
2022-12-24T13:16:42.705Z,87.39
2022-12-24T13:18:19.816Z,87.82
2022-12-24T13:19:38.022Z,87.49
2022-12-24T13:20:45.985Z,87.49
2022-12-24T13:21:49.001Z,87.31
2022-12-24T13:22:59.929Z,87.67
2022-12-24T13:24:17.872Z,87.21
2022-12-24T13:25:21.892Z,87.39
2022-12-24T13:26:23.541Z,87.56
2022-12-24T13:27:27.593Z,87.80
2022-12-24T13:28:34.861Z,87.89
2022-12-24T13:29:56.454Z,87.79
2022-12-24T13:31:01.249Z,87.67
2022-12-24T13:32:21.294Z,88.06
2022-12-24T13:33:38.378Z,88.09
2022-12-24T13:34:48.023Z,87.97
2022-12-24T13:36:19.713Z,87.95
2022-12-24T13:37:31.741Z,88.22
2022-12-24T13:38:44.140Z,88.45
2022-12-24T13:40:07.270Z,88.69
2022-12-24T13:41:41.019Z,88.85
2022-12-24T13:42:58.610Z,89.30
2022-12-24T13:44:06.162Z,89.71
2022-12-24T13:45:32.689Z,89.69
2022-12-24T13:46:51.413Z,89.63
2022-12-24T13:47:53.040Z,89.53
2022-12-24T13:48:54.647Z,89.60
2022-12-24T13:49:59.347Z,89.71
2022-12-24T13:51:18.611Z,89.71
2022-12-24T13:52:30.333Z,89.89
2022-12-24T13:53:40.885Z,90.05
2022-12-24T13:54:45.301Z,89.98
2022-12-24T13:55:58.778Z,90.07
2022-12-24T13:57:00.966Z,89.72
2022-12-24T13:58:05.118Z,89.83
2022-12-24T13:59:22.712Z,89.80
2022-12-24T14:00:32.191Z,89.94
2022-12-24T14:01:40.304Z,89.99
2022-12-24T14:03:12.740Z,90.26
2022-12-24T14:04:35.368Z,90.27
2022-12-24T14:05:47.586Z,90.55
2022-12-24T14:06:52.178Z,90.39
2022-12-24T14:07:56.664Z,90.56
2022-12-24T14:09:08.997Z,90.84
2022-12-24T14:10:23.093Z,90.84
2022-12-24T14:11:26.354Z,90.86
2022-12-24T14:12:46.234Z,90.79
2022-12-24T14:13:48.393Z,90.87
2022-12-24T14:14:50.009Z,90.80
2022-12-24T14:15:54.893Z,91.02
2022-12-24T14:17:02.899Z,91.10
2022-12-24T14:18:05.190Z,91.07
2022-12-24T14:19:15.368Z,91.47
2022-12-24T14:20:16.991Z,91.58
2022-12-24T14:21:25.120Z,91.50
2022-12-24T14:22:36.747Z,91.61
2022-12-24T14:24:02.329Z,91.57
2022-12-24T14:25:16.908Z,91.64
2022-12-24T14:26:21.876Z,91.65
2022-12-24T14:27:45.973Z,91.78
2022-12-24T14:29:16.482Z,91.87
2022-12-24T14:30:24.948Z,91.93
2022-12-24T14:31:26.891Z,92.15
2022-12-24T14:32:37.623Z,92.28
2022-12-24T14:33:39.124Z,92.16
2022-12-24T14:34:41.085Z,92.31
2022-12-24T14:35:42.675Z,92.51
2022-12-24T14:36:46.623Z,92.31
2022-12-24T14:37:56.488Z,92.41
2022-12-24T14:38:59.585Z,92.07
2022-12-24T14:40:01.814Z,92.38
2022-12-24T14:41:26.515Z,92.44
2022-12-24T14:42:57.565Z,92.80
2022-12-24T14:44:14.301Z,92.57
2022-12-24T14:45:50.553Z,92.61
2022-12-24T14:47:15.124Z,92.57
2022-12-24T14:48:26.207Z,93.07
2022-12-24T14:49:56.340Z,93.31
2022-12-24T14:51:10.488Z,93.22
2022-12-24T14:52:30.693Z,93.45
2022-12-24T14:53:39.639Z,93.66
2022-12-24T14:54:42.542Z,93.59
2022-12-24T14:55:46.796Z,93.54
2022-12-24T14:57:09.492Z,93.48
2022-12-24T14:58:31.936Z,93.70
2022-12-24T14:59:54.682Z,93.78
2022-12-24T15:01:03.170Z,93.85
2022-12-24T15:02:42.188Z,93.89
2022-12-24T15:03:44.548Z,93.89
2022-12-24T15:05:02.613Z,93.97
2022-12-24T15:06:06.263Z,94.35
2022-12-24T15:07:11.391Z,94.48
2022-12-24T15:08:19.453Z,94.25
2022-12-24T15:09:28.670Z,94.44
2022-12-24T15:10:40.834Z,94.37
2022-12-24T15:11:48.205Z,94.56
2022-12-24T15:12:50.676Z,94.54
2022-12-24T15:13:58.575Z,94.58
2022-12-24T15:15:00.349Z,94.52
2022-12-24T15:16:03.863Z,94.54
2022-12-24T15:17:07.537Z,94.73
2022-12-24T15:18:16.357Z,94.54
2022-12-24T15:19:26.252Z,94.75